Time;durP1;ratioP1;P1;durP2;ratioP2;P2;SDS_P1;SDS_P2;PMS_P1;PMS_P2;Temp;Humidity;BMP_temperature;BMP_pressure;BME280_temperature;BME280_humidity;BME280_pressure;Samples;Min_cycle;Max_cycle;Signal;HPM_P1;HPM_P2
2024/01/04 00:02:14;;;;;;;0.20;0.20;;;7.40;99.90;;;;;;5071737;28;20384;-65
2024/01/04 00:04:40;;;;;;;0.63;0.20;;;7.30;99.90;;;;;;5069142;28;20480;-65
2024/01/04 00:07:06;;;;;;;0.00;0.00;;;7.40;99.90;;;;;;5070045;28;20166;-66
2024/01/04 00:09:31;;;;;;;0.10;0.10;;;7.40;99.90;;;;;;5068957;28;20558;-66
2024/01/04 00:11:57;;;;;;;0.88;0.50;;;7.40;99.90;;;;;;5065793;28;20047;-65
2024/01/04 00:14:23;;;;;;;0.43;0.43;;;7.30;99.90;;;;;;5070821;28;20522;-66
2024/01/04 00:16:48;;;;;;;0.20;0.17;;;7.30;99.90;;;;;;5066431;28;20037;-66
2024/01/04 00:19:14;;;;;;;0.08;0.08;;;7.30;99.90;;;;;;5071045;28;20045;-66
2024/01/04 00:21:40;;;;;;;0.00;0.00;;;7.20;99.90;;;;;;5062398;28;20044;-66
2024/01/04 00:24:06;;;;;;;0.47;0.20;;;7.20;99.90;;;;;;5089437;28;20106;-65
2024/01/04 00:26:32;;;;;;;0.47;0.47;;;7.10;99.90;;;;;;5090933;28;20040;-66
2024/01/04 00:28:58;;;;;;;0.10;0.10;;;7.20;99.90;;;;;;5071105;28;20554;-65
2024/01/04 00:31:24;;;;;;;0.10;0.10;;;7.20;99.90;;;;;;5069278;28;20048;-65
2024/01/04 00:33:50;;;;;;;0.00;0.00;;;7.10;99.90;;;;;;5071947;28;20383;-65
2024/01/04 00:36:15;;;;;;;0.17;0.17;;;7.10;99.90;;;;;;5068400;28;20035;-65
2024/01/04 00:38:41;;;;;;;0.13;0.10;;;7.10;99.90;;;;;;5068504;28;20052;-66
2024/01/04 00:41:06;;;;;;;0.13;0.13;;;7.10;99.90;;;;;;5065466;28;20048;-66
2024/01/04 00:43:32;;;;;;;1.23;0.57;;;7.10;99.90;;;;;;5098985;28;20395;-66
2024/01/04 00:45:58;;;;;;;0.00;0.00;;;7.10;99.90;;;;;;5066336;28;20535;-66
2024/01/04 00:48:24;;;;;;;0.00;0.00;;;7.10;99.90;;;;;;5064965;28;20123;-66
2024/01/04 00:50:50;;;;;;;0.00;0.00;;;7.00;99.90;;;;;;5059250;28;20132;-65
2024/01/04 00:53:15;;;;;;;0.10;0.10;;;7.00;99.90;;;;;;5064836;28;20224;-66
2024/01/04 00:55:41;;;;;;;0.75;0.52;;;7.00;99.90;;;;;;5087479;28;20040;-66
2024/01/04 00:58:07;;;;;;;0.82;0.10;;;7.10;99.90;;;;;;5063753;28;20033;-65
2024/01/04 01:00:32;;;;;;;0.20;0.20;;;7.10;99.90;;;;;;5062663;28;20049;-65
2024/01/04 01:02:58;;;;;;;0.10;0.10;;;7.00;99.90;;;;;;5063428;28;20041;-65
2024/01/04 01:05:24;;;;;;;0.10;0.10;;;7.00;99.90;;;;;;5069853;28;20036;-65
2024/01/04 01:07:50;;;;;;;0.57;0.22;;;7.00;99.90;;;;;;5070477;28;20495;-65
2024/01/04 01:10:15;;;;;;;0.20;0.20;;;6.90;99.90;;;;;;5064680;28;20029;-65
2024/01/04 01:12:41;;;;;;;0.73;0.73;;;6.90;99.90;;;;;;5061849;28;20464;-65
2024/01/04 01:15:07;;;;;;;0.20;0.20;;;6.80;99.90;;;;;;5064809;28;20047;-65
2024/01/04 01:17:32;;;;;;;0.25;0.25;;;6.80;99.90;;;;;;5067303;28;20127;-65
2024/01/04 01:19:58;;;;;;;0.10;0.10;;;6.70;99.90;;;;;;5069369;28;20491;-65
2024/01/04 01:22:24;;;;;;;0.03;0.03;;;6.70;99.90;;;;;;5059306;28;20045;-65
2024/01/04 01:24:50;;;;;;;4.13;0.57;;;6.70;99.90;;;;;;5063317;28;20051;-64
2024/01/04 01:27:15;;;;;;;0.10;0.10;;;6.70;99.90;;;;;;5070783;28;20040;-64
2024/01/04 01:29:41;;;;;;;0.10;0.10;;;6.70;99.90;;;;;;5069964;28;20037;-65
2024/01/04 01:32:06;;;;;;;0.10;0.10;;;6.60;99.90;;;;;;5069169;28;20044;-65
2024/01/04 01:34:32;;;;;;;0.10;0.10;;;6.70;99.90;;;;;;5051872;28;20060;-65
2024/01/04 01:36:58;;;;;;;0.10;0.10;;;6.60;99.90;;;;;;5063253;28;20040;-65
2024/01/04 01:39:24;;;;;;;0.10;0.10;;;6.70;99.90;;;;;;5071946;28;20050;-65
2024/01/04 01:41:51;;;;;;;0.10;0.10;;;6.60;99.90;;;;;;5071046;28;20044;-66
2024/01/04 01:44:17;;;;;;;0.15;0.15;;;6.60;99.90;;;;;;5071519;28;20052;-65
2024/01/04 01:46:43;;;;;;;0.10;0.10;;;6.60;99.90;;;;;;5072686;28;20395;-66
2024/01/04 01:49:10;;;;;;;0.20;0.20;;;6.60;99.90;;;;;;5071086;28;20033;-65
2024/01/04 01:51:36;;;;;;;0.10;0.10;;;6.60;99.90;;;;;;5058555;28;20103;-65
2024/01/04 01:54:03;;;;;;;1.13;0.35;;;6.60;99.90;;;;;;5090564;28;20041;-64
2024/01/04 01:56:30;;;;;;;0.10;0.10;;;6.70;99.90;;;;;;5097527;28;20044;-65
2024/01/04 01:58:57;;;;;;;0.10;0.10;;;6.60;99.90;;;;;;5087476;28;20037;-64
2024/01/04 02:01:23;;;;;;;0.20;0.20;;;6.70;99.90;;;;;;5052736;28;20179;-66
2024/01/04 02:03:50;;;;;;;0.57;0.30;;;6.70;99.90;;;;;;5063948;28;20104;-65
2024/01/04 02:06:15;;;;;;;0.05;0.05;;;6.70;99.90;;;;;;5094167;28;20040;-65
2024/01/04 02:08:44;;;;;;;0.10;0.10;;;6.70;99.90;;;;;;5067490;28;20040;-65
2024/01/04 02:11:09;;;;;;;2.00;0.40;;;6.70;99.90;;;;;;5069345;28;20054;-65
2024/01/04 02:13:35;;;;;;;0.00;0.00;;;6.70;99.90;;;;;;5072073;28;20475;-65
2024/01/04 02:16:01;;;;;;;0.10;0.10;;;6.70;99.90;;;;;;5069010;28;20048;-65
2024/01/04 02:18:26;;;;;;;0.00;0.00;;;6.60;99.90;;;;;;5067992;28;20491;-64
2024/01/04 02:20:52;;;;;;;0.10;0.10;;;6.60;99.90;;;;;;5063159;28;20432;-65
2024/01/04 02:23:18;;;;;;;0.10;0.10;;;6.60;99.90;;;;;;5065713;28;20041;-64
2024/01/04 02:25:43;;;;;;;0.45;0.38;;;6.60;99.90;;;;;;5067411;28;20494;-64
2024/01/04 02:28:13;;;;;;;0.10;0.10;;;6.60;99.90;;;;;;5068038;28;20037;-64
2024/01/04 02:30:38;;;;;;;0.30;0.30;;;6.60;99.90;;;;;;5067198;28;20499;-64
2024/01/04 02:33:04;;;;;;;14.45;0.47;;;6.60;99.90;;;;;;5066207;28;20170;-64
2024/01/04 02:35:30;;;;;;;0.20;0.20;;;6.60;99.90;;;;;;5061416;28;20132;-65
2024/01/04 02:37:55;;;;;;;0.10;0.10;;;6.60;99.90;;;;;;5066308;28;20071;-65
2024/01/04 02:40:21;;;;;;;0.63;0.63;;;6.60;99.90;;;;;;5062126;28;20083;-65
2024/01/04 02:42:47;;;;;;;0.00;0.00;;;6.60;99.90;;;;;;5059605;28;20097;-65
2024/01/04 02:45:14;;;;;;;0.10;0.10;;;6.60;99.90;;;;;;5061643;28;20048;-65
2024/01/04 02:47:40;;;;;;;0.10;0.10;;;6.60;99.90;;;;;;5067299;28;20052;-64
2024/01/04 02:50:06;;;;;;;0.10;0.10;;;6.60;99.90;;;;;;5069261;28;20036;-64
2024/01/04 02:52:31;;;;;;;0.17;0.17;;;6.60;99.90;;;;;;5061978;28;20044;-65
2024/01/04 02:54:57;;;;;;;0.10;0.10;;;6.60;99.90;;;;;;5067791;28;20521;-64
2024/01/04 02:57:22;;;;;;;0.10;0.10;;;6.50;99.90;;;;;;5068389;28;20040;-64
2024/01/04 02:59:48;;;;;;;0.03;0.03;;;6.40;99.90;;;;;;5069775;28;20063;-64
2024/01/04 03:02:15;;;;;;;0.10;0.10;;;6.40;99.90;;;;;;5068889;28;20042;-64
2024/01/04 03:04:42;;;;;;;0.10;0.10;;;6.30;99.90;;;;;;5070047;28;20052;-64
2024/01/04 03:07:08;;;;;;;0.10;0.10;;;6.30;99.90;;;;;;5072580;28;20044;-64
2024/01/04 03:09:34;;;;;;;0.10;0.10;;;6.30;99.90;;;;;;5069273;28;20086;-65
2024/01/04 03:11:59;;;;;;;0.20;0.20;;;6.30;99.90;;;;;;5067962;28;20040;-64
2024/01/04 03:14:25;;;;;;;0.20;0.20;;;6.30;99.90;;;;;;5067373;28;20140;-64
2024/01/04 03:16:50;;;;;;;0.00;0.00;;;6.30;99.90;;;;;;5068515;28;20045;-64
2024/01/04 03:19:51;;;;;;;0.03;0.03;;;6.40;99.90;;;;;;5070275;28;20037;-64
2024/01/04 03:22:16;;;;;;;4.57;0.20;;;6.30;99.90;;;;;;5070393;28;20041;-64
2024/01/04 03:24:42;;;;;;;0.10;0.10;;;6.30;99.90;;;;;;5070265;28;20047;-65
2024/01/04 03:27:08;;;;;;;0.10;0.10;;;6.30;99.90;;;;;;5070673;28;20032;-64
2024/01/04 03:29:34;;;;;;;0.10;0.10;;;6.40;99.90;;;;;;5066402;28;20062;-64
2024/01/04 03:31:59;;;;;;;0.20;0.20;;;6.40;99.90;;;;;;5062202;28;20479;-65
2024/01/04 03:34:28;;;;;;;0.22;0.22;;;6.30;99.90;;;;;;5049471;28;20094;-64
2024/01/04 03:36:54;;;;;;;0.17;0.17;;;6.30;99.90;;;;;;5058358;28;20036;-65
2024/01/04 03:39:19;;;;;;;14.90;0.38;;;6.20;99.90;;;;;;5062241;28;20041;-64
2024/01/04 03:41:45;;;;;;;1.17;0.60;;;6.20;99.90;;;;;;5061208;28;20037;-64
2024/01/04 03:44:11;;;;;;;0.10;0.10;;;6.10;99.90;;;;;;5071000;28;20048;-64
2024/01/04 03:46:36;;;;;;;0.10;0.10;;;6.10;99.90;;;;;;5066655;28;20041;-64
2024/01/04 03:49:02;;;;;;;0.10;0.10;;;6.10;99.90;;;;;;5062866;28;20040;-64
2024/01/04 03:51:27;;;;;;;3.40;0.40;;;6.10;99.90;;;;;;5064287;28;20376;-64
2024/01/04 03:53:53;;;;;;;0.30;0.30;;;6.10;99.90;;;;;;5070986;28;20103;-64
2024/01/04 03:56:18;;;;;;;0.10;0.10;;;6.00;99.90;;;;;;5068115;28;20036;-64
2024/01/04 03:58:44;;;;;;;0.00;0.00;;;6.00;99.90;;;;;;5067766;28;20078;-64
2024/01/04 04:01:09;;;;;;;1.20;0.55;;;6.00;99.90;;;;;;5067082;28;20175;-64
2024/01/04 04:03:35;;;;;;;0.05;0.05;;;6.00;99.90;;;;;;5070418;28;20079;-63
2024/01/04 04:06:08;;;;;;;0.70;0.20;;;6.00;99.90;;;;;;5063725;28;20043;-63
2024/01/04 04:08:34;;;;;;;0.60;0.60;;;6.00;99.90;;;;;;5071685;28;20142;-63
2024/01/04 04:10:59;;;;;;;0.17;0.17;;;6.00;99.90;;;;;;5061301;28;20494;-64
2024/01/04 04:13:25;;;;;;;0.10;0.10;;;5.90;99.90;;;;;;5069514;28;20060;-63
2024/01/04 04:15:51;;;;;;;0.20;0.20;;;5.90;99.90;;;;;;5067501;28;20048;-64
2024/01/04 04:18:16;;;;;;;0.13;0.10;;;5.90;99.90;;;;;;5064288;28;20056;-64
2024/01/04 04:20:42;;;;;;;0.10;0.10;;;5.90;99.90;;;;;;5069891;28;20057;-63
2024/01/04 04:23:08;;;;;;;0.00;0.00;;;5.90;99.90;;;;;;5067767;28;20032;-63
2024/01/04 04:25:36;;;;;;;0.10;0.10;;;5.90;99.90;;;;;;5054566;28;20041;-64
2024/01/04 04:28:02;;;;;;;0.20;0.20;;;6.00;99.90;;;;;;5070700;28;20037;-64
2024/01/04 04:30:29;;;;;;;0.17;0.17;;;6.00;99.90;;;;;;5071285;28;20051;-63
2024/01/04 04:32:55;;;;;;;0.10;0.10;;;6.00;99.90;;;;;;5070256;28;20051;-63
2024/01/04 04:35:21;;;;;;;0.10;0.10;;;6.00;99.90;;;;;;5071612;28;20037;-63
2024/01/04 04:37:46;;;;;;;0.10;0.10;;;6.00;99.90;;;;;;5069954;28;20036;-64
2024/01/04 04:40:13;;;;;;;0.10;0.10;;;5.90;99.90;;;;;;5103975;28;20041;-63
2024/01/04 04:42:40;;;;;;;0.40;0.40;;;6.00;99.90;;;;;;5066559;28;20380;-63
2024/01/04 04:45:06;;;;;;;0.10;0.10;;;6.00;99.90;;;;;;5067403;28;20036;-64
2024/01/04 04:47:31;;;;;;;0.10;0.10;;;6.00;99.90;;;;;;5062570;28;20036;-64
2024/01/04 04:49:57;;;;;;;0.10;0.10;;;6.00;99.90;;;;;;5072986;28;20037;-63
2024/01/04 04:52:22;;;;;;;0.13;0.13;;;6.00;99.90;;;;;;5065800;28;20453;-64
2024/01/04 04:54:48;;;;;;;0.10;0.10;;;6.00;99.90;;;;;;5059995;28;20534;-63
2024/01/04 04:57:14;;;;;;;0.20;0.20;;;5.90;99.90;;;;;;5064446;28;20102;-64
2024/01/04 04:59:39;;;;;;;0.00;0.00;;;5.90;99.90;;;;;;5068570;28;20044;-64
2024/01/04 05:02:05;;;;;;;0.10;0.10;;;5.90;99.90;;;;;;5063852;28;20080;-64
2024/01/04 05:04:30;;;;;;;0.00;0.00;;;5.90;99.90;;;;;;5066409;28;20460;-63
2024/01/04 05:06:56;;;;;;;0.20;0.20;;;5.90;99.90;;;;;;5061490;28;20498;-65
2024/01/04 05:09:22;;;;;;;0.10;0.10;;;5.90;99.90;;;;;;5063694;28;20495;-64
2024/01/04 05:11:47;;;;;;;0.75;0.30;;;5.80;99.90;;;;;;5055348;28;20033;-63
2024/01/04 05:14:13;;;;;;;0.10;0.10;;;5.80;99.90;;;;;;5071238;28;20040;-63
2024/01/04 05:16:38;;;;;;;1.13;0.40;;;5.80;99.90;;;;;;5063371;28;20554;-63
2024/01/04 05:19:08;;;;;;;0.08;0.08;;;5.80;99.90;;;;;;5065610;28;20090;-63
2024/01/04 05:21:33;;;;;;;0.10;0.10;;;5.80;99.90;;;;;;5068351;28;20040;-63
2024/01/04 05:23:59;;;;;;;0.20;0.20;;;5.80;99.90;;;;;;5058485;28;20494;-63
2024/01/04 05:26:25;;;;;;;0.10;0.10;;;5.80;99.90;;;;;;5081087;28;20087;-63
2024/01/04 05:28:50;;;;;;;0.10;0.10;;;5.70;99.90;;;;;;5057289;28;20040;-63
2024/01/04 05:31:19;;;;;;;0.08;0.08;;;5.70;99.90;;;;;;5059069;28;20136;-63
2024/01/04 05:33:45;;;;;;;0.10;0.10;;;5.70;99.90;;;;;;5059828;28;20056;-63
2024/01/04 05:36:11;;;;;;;0.10;0.10;;;5.60;99.90;;;;;;5061381;28;20040;-64
2024/01/04 05:38:36;;;;;;;0.10;0.10;;;5.70;99.90;;;;;;5072233;28;20040;-63
2024/01/04 05:41:04;;;;;;;0.10;0.10;;;5.60;99.90;;;;;;5067797;28;20070;-63
2024/01/04 05:43:30;;;;;;;0.08;0.08;;;5.70;99.90;;;;;;5071751;28;20044;-63
2024/01/04 05:45:56;;;;;;;0.00;0.00;;;5.70;99.90;;;;;;5057604;28;20049;-63
2024/01/04 05:48:21;;;;;;;0.03;0.03;;;5.70;99.90;;;;;;5059211;28;20063;-64
2024/01/04 05:50:49;;;;;;;0.00;0.00;;;5.60;99.90;;;;;;5070276;28;20111;-63
2024/01/04 05:53:15;;;;;;;0.00;0.00;;;5.60;99.90;;;;;;5067379;28;20094;-64
2024/01/04 05:55:40;;;;;;;0.65;0.20;;;5.60;99.90;;;;;;5068714;28;20495;-63
2024/01/04 05:58:06;;;;;;;0.10;0.10;;;5.60;99.90;;;;;;5063067;28;20048;-65
2024/01/04 06:00:31;;;;;;;0.10;0.10;;;5.60;99.90;;;;;;5068768;28;20044;-64
2024/01/04 06:02:57;;;;;;;0.00;0.00;;;5.60;99.90;;;;;;5060441;28;20048;-64
2024/01/04 06:05:22;;;;;;;0.10;0.10;;;5.60;99.90;;;;;;5069853;28;20048;-64
2024/01/04 06:07:48;;;;;;;0.40;0.40;;;5.60;99.90;;;;;;5069502;28;20044;-64
2024/01/04 06:10:13;;;;;;;0.10;0.10;;;5.60;99.90;;;;;;5064546;28;20422;-64
2024/01/04 06:12:39;;;;;;;0.10;0.10;;;5.60;99.90;;;;;;5060759;28;20499;-64
2024/01/04 06:15:05;;;;;;;0.03;0.03;;;5.50;99.90;;;;;;5061293;28;20064;-63
2024/01/04 06:17:30;;;;;;;0.10;0.10;;;5.50;99.90;;;;;;5067935;28;20434;-64
2024/01/04 06:19:56;;;;;;;0.10;0.10;;;5.50;99.90;;;;;;5067310;28;20086;-64
2024/01/04 06:22:22;;;;;;;0.20;0.20;;;5.50;99.90;;;;;;5059190;28;20045;-65
2024/01/04 06:24:47;;;;;;;0.10;0.10;;;5.50;99.90;;;;;;5057346;28;20056;-64
2024/01/04 06:27:13;;;;;;;0.10;0.10;;;5.50;99.90;;;;;;5071573;28;20032;-65
2024/01/04 06:29:39;;;;;;;1.08;0.30;;;5.40;99.90;;;;;;5068653;28;20446;-64
2024/01/04 06:32:04;;;;;;;0.17;0.17;;;5.40;99.90;;;;;;5061402;28;20079;-64
2024/01/04 06:34:30;;;;;;;0.13;0.13;;;5.40;99.90;;;;;;5069737;28;20452;-64
2024/01/04 06:36:56;;;;;;;0.00;0.00;;;5.40;99.90;;;;;;5064127;28;20365;-64
2024/01/04 06:39:21;;;;;;;0.20;0.20;;;5.40;99.90;;;;;;5061261;28;20395;-64
2024/01/04 06:41:47;;;;;;;0.10;0.10;;;5.40;99.90;;;;;;5059603;28;20480;-64
2024/01/04 06:44:12;;;;;;;0.10;0.10;;;5.40;99.90;;;;;;5064469;28;20535;-64
2024/01/04 06:46:38;;;;;;;0.10;0.10;;;5.40;99.90;;;;;;5065544;28;20036;-64
2024/01/04 06:49:03;;;;;;;6.03;0.45;;;5.40;99.90;;;;;;5070749;28;20037;-64
2024/01/04 06:51:29;;;;;;;0.10;0.10;;;5.40;99.90;;;;;;5055342;28;20418;-64
2024/01/04 06:53:54;;;;;;;0.10;0.10;;;5.40;99.90;;;;;;5059060;28;20101;-64
2024/01/04 06:56:20;;;;;;;0.10;0.10;;;5.40;99.90;;;;;;5067538;28;20537;-64
2024/01/04 06:58:46;;;;;;;0.73;0.73;;;5.40;99.90;;;;;;5052026;28;20119;-64
2024/01/04 07:01:11;;;;;;;0.10;0.10;;;5.40;99.90;;;;;;5056434;28;20056;-63
2024/01/04 07:03:38;;;;;;;0.10;0.10;;;5.40;99.90;;;;;;5058472;28;20037;-64
2024/01/04 07:06:03;;;;;;;0.10;0.10;;;5.40;99.90;;;;;;5068063;28;20685;-64
2024/01/04 07:08:29;;;;;;;0.03;0.03;;;5.40;99.90;;;;;;5064149;28;20154;-64
2024/01/04 07:10:54;;;;;;;0.10;0.10;;;5.40;99.90;;;;;;5062955;28;20569;-64
2024/01/04 07:13:21;;;;;;;0.10;0.10;;;5.40;99.90;;;;;;5066040;28;20037;-64
2024/01/04 07:15:46;;;;;;;0.00;0.00;;;5.30;99.90;;;;;;5068972;28;20041;-64
2024/01/04 07:18:12;;;;;;;0.10;0.10;;;5.30;99.90;;;;;;5060652;28;20040;-64
2024/01/04 07:20:41;;;;;;;0.10;0.10;;;5.30;99.90;;;;;;5065051;28;20407;-64
2024/01/04 07:23:06;;;;;;;0.90;0.65;;;5.30;99.90;;;;;;5063881;28;20056;-64
2024/01/04 07:25:34;;;;;;;0.10;0.10;;;5.30;99.90;;;;;;5064255;28;20484;-64
2024/01/04 07:28:00;;;;;;;0.10;0.10;;;5.30;99.90;;;;;;5066490;28;20107;-65
2024/01/04 07:30:25;;;;;;;0.20;0.10;;;5.20;99.90;;;;;;5066926;28;20167;-64
2024/01/04 07:32:51;;;;;;;0.13;0.13;;;5.10;99.90;;;;;;5064964;28;20037;-64
2024/01/04 07:35:19;;;;;;;0.10;0.10;;;5.10;99.90;;;;;;5060220;28;20052;-64
2024/01/04 07:37:44;;;;;;;0.08;0.08;;;5.10;99.90;;;;;;5053365;28;20044;-64
2024/01/04 07:40:11;;;;;;;0.00;0.00;;;5.10;99.90;;;;;;5057235;28;20110;-64
2024/01/04 07:42:36;;;;;;;0.10;0.10;;;5.10;99.90;;;;;;5067236;28;20511;-64
2024/01/04 07:45:02;;;;;;;0.10;0.10;;;5.00;99.90;;;;;;5062854;28;20090;-64
2024/01/04 07:47:28;;;;;;;0.00;0.00;;;5.10;99.90;;;;;;5070890;28;20036;-63
2024/01/04 07:49:54;;;;;;;0.08;0.08;;;5.10;99.90;;;;;;5068858;28;20036;-64
2024/01/04 07:52:19;;;;;;;0.10;0.10;;;5.10;99.90;;;;;;5061211;28;20036;-64
2024/01/04 07:54:45;;;;;;;0.10;0.10;;;5.10;99.90;;;;;;5064895;28;20495;-64
2024/01/04 07:57:12;;;;;;;0.05;0.05;;;5.10;99.90;;;;;;5066559;28;20507;-64
2024/01/04 07:59:38;;;;;;;0.20;0.20;;;5.10;99.90;;;;;;5070876;28;20063;-64
2024/01/04 08:02:03;;;;;;;0.10;0.10;;;5.00;99.90;;;;;;5069163;28;20045;-64
2024/01/04 08:04:29;;;;;;;0.10;0.10;;;5.00;99.90;;;;;;5070535;28;20116;-64
2024/01/04 08:06:55;;;;;;;0.10;0.10;;;5.00;99.90;;;;;;5054022;28;20041;-64
2024/01/04 08:09:22;;;;;;;0.10;0.10;;;5.10;99.90;;;;;;5070093;28;20040;-64
2024/01/04 08:11:47;;;;;;;0.43;0.25;;;5.00;99.90;;;;;;5069371;28;20044;-64
2024/01/04 08:14:13;;;;;;;0.00;0.00;;;5.00;99.90;;;;;;5070507;28;20036;-64
2024/01/04 08:16:39;;;;;;;0.43;0.20;;;5.00;99.90;;;;;;5068382;28;20102;-64
2024/01/04 08:19:04;;;;;;;0.10;0.10;;;5.00;99.90;;;;;;5064103;28;20041;-64
2024/01/04 08:21:30;;;;;;;0.10;0.10;;;5.00;99.90;;;;;;5067420;28;20040;-64
2024/01/04 08:23:56;;;;;;;0.10;0.10;;;5.10;99.90;;;;;;5052159;28;20040;-64
2024/01/04 08:26:21;;;;;;;0.05;0.05;;;5.10;99.90;;;;;;5057340;28;20082;-64
2024/01/04 08:28:47;;;;;;;0.10;0.10;;;5.10;99.90;;;;;;5067510;28;20407;-64
2024/01/04 08:31:12;;;;;;;0.10;0.10;;;5.10;99.90;;;;;;5071210;28;20123;-64
2024/01/04 08:33:38;;;;;;;0.00;0.00;;;5.10;99.90;;;;;;5055051;28;20435;-64
2024/01/04 08:36:04;;;;;;;0.10;0.10;;;5.20;99.90;;;;;;5065517;28;20048;-64
2024/01/04 08:38:30;;;;;;;0.10;0.10;;;5.20;99.90;;;;;;5062589;28;20501;-64
2024/01/04 08:40:56;;;;;;;0.10;0.10;;;5.20;99.90;;;;;;5070304;28;20040;-64
2024/01/04 08:43:21;;;;;;;0.10;0.10;;;5.20;99.90;;;;;;5059693;28;20065;-64
2024/01/04 08:45:48;;;;;;;0.10;0.10;;;5.20;99.90;;;;;;5065914;28;20479;-64
2024/01/04 08:48:13;;;;;;;0.52;0.30;;;5.20;99.90;;;;;;5055197;28;20458;-64
2024/01/04 08:50:39;;;;;;;0.00;0.00;;;5.20;99.90;;;;;;5049196;28;20128;-64
2024/01/04 08:53:05;;;;;;;0.20;0.20;;;5.20;99.90;;;;;;5055414;28;20045;-64
2024/01/04 08:55:30;;;;;;;0.10;0.10;;;5.20;99.90;;;;;;5077309;28;20552;-64
2024/01/04 08:57:57;;;;;;;0.10;0.10;;;5.20;99.90;;;;;;5058016;28;20045;-64
2024/01/04 09:00:23;;;;;;;0.00;0.00;;;5.30;99.90;;;;;;5050141;28;20045;-64
2024/01/04 09:02:48;;;;;;;0.10;0.10;;;5.30;99.90;;;;;;5055807;28;20063;-64
2024/01/04 09:05:14;;;;;;;0.10;0.10;;;5.30;99.90;;;;;;5057261;28;20090;-64
2024/01/04 09:07:39;;;;;;;0.10;0.10;;;5.30;99.90;;;;;;5065119;28;20527;-64
2024/01/04 09:10:06;;;;;;;0.20;0.20;;;5.30;99.90;;;;;;5065565;28;20060;-64
2024/01/04 09:12:32;;;;;;;0.20;0.20;;;5.30;99.90;;;;;;5068211;28;20079;-64
2024/01/04 09:14:58;;;;;;;0.00;0.00;;;5.30;99.90;;;;;;5062303;28;20144;-64
2024/01/04 09:17:25;;;;;;;0.10;0.10;;;5.30;99.90;;;;;;5064973;28;20546;-64
2024/01/04 09:19:51;;;;;;;0.28;0.28;;;5.40;99.90;;;;;;5065516;28;20055;-64
2024/01/04 09:22:17;;;;;;;0.00;0.00;;;5.40;99.90;;;;;;5068226;28;20045;-64
2024/01/04 09:24:43;;;;;;;0.10;0.10;;;5.30;99.90;;;;;;5059785;28;20033;-64
2024/01/04 09:27:08;;;;;;;0.10;0.10;;;5.40;99.90;;;;;;5069280;28;20457;-64
2024/01/04 09:29:34;;;;;;;0.10;0.10;;;5.40;99.90;;;;;;5067363;28;20463;-64
2024/01/04 09:32:01;;;;;;;0.08;0.08;;;5.40;99.90;;;;;;5068128;28;20139;-64
2024/01/04 09:34:27;;;;;;;0.22;0.22;;;5.50;99.90;;;;;;5057387;28;20098;-64
2024/01/04 09:36:54;;;;;;;0.10;0.10;;;5.50;99.90;;;;;;5057041;28;20045;-64
2024/01/04 09:39:20;;;;;;;0.00;0.00;;;5.50;99.90;;;;;;5063435;28;20130;-64
2024/01/04 09:41:47;;;;;;;0.20;0.20;;;5.50;99.90;;;;;;5042096;28;20075;-64
2024/01/04 09:44:14;;;;;;;0.10;0.10;;;5.60;99.90;;;;;;5066637;28;20045;-64
2024/01/04 09:46:41;;;;;;;0.43;0.43;;;5.60;99.90;;;;;;5071386;28;20106;-64
2024/01/04 09:49:09;;;;;;;0.00;0.00;;;5.60;99.90;;;;;;5058181;28;20037;-64
2024/01/04 09:51:39;;;;;;;0.20;0.20;;;5.60;99.90;;;;;;5087100;28;20426;-64
2024/01/04 09:54:10;;;;;;;0.10;0.10;;;5.50;99.90;;;;;;5067393;28;20402;-64
2024/01/04 09:56:42;;;;;;;0.30;0.20;;;5.50;99.90;;;;;;5067303;28;20498;-64
2024/01/04 09:59:08;;;;;;;0.10;0.10;;;5.60;99.90;;;;;;5057842;28;20040;-64
2024/01/04 10:01:36;;;;;;;0.10;0.10;;;5.60;99.90;;;;;;5059757;28;20103;-64
2024/01/04 10:04:08;;;;;;;0.10;0.10;;;5.60;99.90;;;;;;5057070;28;20049;-64
2024/01/04 10:06:37;;;;;;;0.03;0.03;;;5.60;99.90;;;;;;5058616;28;20552;-64
2024/01/04 10:09:21;;;;;;;0.10;0.10;;;5.60;99.90;;;;;;5049602;28;20045;-64
2024/01/04 10:12:08;;;;;;;0.10;0.10;;;5.60;99.90;;;;;;5049497;28;20040;-64
2024/01/04 10:14:35;;;;;;;0.08;0.08;;;5.60;99.90;;;;;;5056333;28;20123;-64
2024/01/04 10:17:03;;;;;;;0.00;0.00;;;5.60;99.90;;;;;;5066928;28;20047;-64
2024/01/04 10:19:31;;;;;;;0.10;0.10;;;5.60;99.90;;;;;;5053621;28;20036;-64
2024/01/04 10:22:04;;;;;;;0.20;0.20;;;5.60;99.90;;;;;;5073301;28;20049;-64
2024/01/04 10:24:37;;;;;;;0.20;0.20;;;5.60;99.90;;;;;;5056045;28;20028;-64
2024/01/04 10:27:04;;;;;;;1.90;1.75;;;5.60;99.90;;;;;;5065656;28;20553;-63
2024/01/04 10:29:35;;;;;;;0.10;0.10;;;5.70;99.90;;;;;;5065276;28;20049;-64
2024/01/04 10:32:10;;;;;;;0.10;0.10;;;5.70;99.90;;;;;;5064321;28;20156;-64
2024/01/04 10:34:37;;;;;;;0.20;0.20;;;5.70;99.90;;;;;;5063593;28;20087;-64
2024/01/04 10:37:17;;;;;;;0.10;0.10;;;5.70;99.90;;;;;;5067235;28;20044;-63
2024/01/04 10:39:57;;;;;;;0.10;0.10;;;5.80;99.90;;;;;;5063967;28;20037;-64
2024/01/04 10:42:23;;;;;;;0.00;0.00;;;5.80;99.90;;;;;;5051476;28;20051;-64
2024/01/04 10:44:53;;;;;;;0.10;0.10;;;5.90;99.90;;;;;;5058694;28;20033;-64
2024/01/04 10:47:18;;;;;;;0.05;0.03;;;5.90;99.90;;;;;;5065639;28;20399;-64
2024/01/04 10:49:47;;;;;;;0.17;0.17;;;5.90;99.90;;;;;;5061165;28;20059;-64
2024/01/04 10:52:17;;;;;;;0.10;0.10;;;5.90;99.90;;;;;;5067147;28;20501;-64
2024/01/04 10:54:43;;;;;;;0.10;0.10;;;5.90;99.90;;;;;;5067390;28;20126;-64
2024/01/04 10:57:11;;;;;;;0.00;0.00;;;5.90;99.90;;;;;;5061083;28;20063;-64
2024/01/04 10:59:36;;;;;;;0.00;0.00;;;5.90;99.90;;;;;;5064556;28;20101;-64
2024/01/04 11:02:02;;;;;;;0.10;0.10;;;5.90;99.90;;;;;;5067015;28;20743;-64
2024/01/04 11:04:30;;;;;;;0.38;0.38;;;5.90;99.90;;;;;;5066256;28;20032;-64
2024/01/04 11:06:57;;;;;;;0.00;0.00;;;6.00;99.90;;;;;;5065467;28;20448;-63
2024/01/04 11:09:24;;;;;;;0.08;0.08;;;6.00;99.90;;;;;;5061837;28;20039;-64
2024/01/04 11:11:52;;;;;;;0.00;0.00;;;6.00;99.90;;;;;;5071288;28;20053;-64
2024/01/04 11:14:19;;;;;;;0.15;0.15;;;6.10;99.90;;;;;;5065537;28;20056;-63
2024/01/04 11:16:45;;;;;;;0.15;0.10;;;6.10;99.90;;;;;;5096949;28;20048;-63
2024/01/04 11:19:52;;;;;;;0.03;0.03;;;6.10;99.90;;;;;;5061437;28;20519;-64
2024/01/04 11:22:44;;;;;;;0.00;0.00;;;6.10;99.90;;;;;;5086332;28;20045;-63
2024/01/04 11:25:26;;;;;;;0.10;0.10;;;6.10;99.90;;;;;;5081690;28;20048;-64
2024/01/04 11:27:52;;;;;;;0.10;0.10;;;6.20;99.90;;;;;;5089567;28;20047;-63
2024/01/04 11:30:18;;;;;;;0.32;0.32;;;6.20;99.90;;;;;;5066665;28;20498;-64
2024/01/04 11:32:44;;;;;;;0.00;0.00;;;6.20;99.90;;;;;;5075262;28;20048;-64
2024/01/04 11:35:11;;;;;;;0.10;0.10;;;6.20;99.90;;;;;;5066700;28;20071;-64
2024/01/04 11:37:36;;;;;;;0.10;0.10;;;6.10;99.90;;;;;;5068015;28;20032;-63
2024/01/04 11:40:07;;;;;;;0.10;0.10;;;6.10;99.90;;;;;;5069137;28;20166;-63
2024/01/04 11:42:40;;;;;;;0.20;0.20;;;6.20;99.90;;;;;;5076881;28;20127;-63
2024/01/04 11:45:17;;;;;;;0.10;0.10;;;6.20;99.90;;;;;;5072796;28;20040;-63
2024/01/04 11:47:47;;;;;;;0.08;0.08;;;6.20;99.90;;;;;;5072100;28;20514;-63
2024/01/04 11:50:24;;;;;;;0.20;0.20;;;6.20;99.90;;;;;;5067741;28;20045;-64
2024/01/04 11:53:03;;;;;;;0.00;0.00;;;6.20;99.90;;;;;;5069083;28;20098;-63
2024/01/04 11:55:29;;;;;;;0.10;0.10;;;6.20;99.90;;;;;;5065561;28;20131;-63
2024/01/04 11:58:11;;;;;;;0.20;0.10;;;6.20;99.90;;;;;;5069992;28;20115;-63
2024/01/04 12:00:47;;;;;;;0.10;0.10;;;6.20;99.90;;;;;;5063993;28;20758;-63
2024/01/04 12:03:14;;;;;;;0.10;0.10;;;6.00;99.90;;;;;;5066959;28;20041;-64
2024/01/04 12:05:51;;;;;;;0.05;0.05;;;6.10;99.90;;;;;;5066414;28;20135;-63
2024/01/04 12:08:24;;;;;;;0.00;0.00;;;6.10;99.90;;;;;;5064735;28;20044;-63
2024/01/04 12:10:53;;;;;;;;;;;6.10;99.90;;;;;;5070479;28;20033;-63
2024/01/04 12:13:19;;;;;;;0.05;0.05;;;6.20;99.90;;;;;;5068092;28;19982;-63
2024/01/04 12:15:45;;;;;;;0.20;0.20;;;6.20;99.90;;;;;;5068578;28;20048;-63
2024/01/04 12:18:10;;;;;;;0.00;0.00;;;6.30;99.90;;;;;;5065971;28;20391;-64
2024/01/04 12:20:36;;;;;;;0.20;0.20;;;6.30;99.90;;;;;;5069977;28;20070;-63
2024/01/04 12:23:04;;;;;;;0.00;0.00;;;6.30;99.90;;;;;;5063575;28;20452;-63
2024/01/04 12:25:30;;;;;;;0.05;0.05;;;6.30;99.90;;;;;;5063513;28;20121;-63
2024/01/04 12:27:56;;;;;;;0.35;0.15;;;6.30;99.90;;;;;;5072178;28;20024;-63
2024/01/04 12:30:22;;;;;;;0.00;0.00;;;6.30;99.90;;;;;;5060430;28;20045;-63
2024/01/04 12:32:47;;;;;;;0.20;0.20;;;6.40;99.90;;;;;;5089999;28;20383;-64
2024/01/04 12:35:17;;;;;;;0.00;0.00;;;6.30;99.90;;;;;;5061389;28;20388;-63
2024/01/04 12:37:42;;;;;;;0.20;0.20;;;6.30;99.90;;;;;;5066968;28;20098;-64
2024/01/04 12:40:11;;;;;;;0.00;0.00;;;6.20;99.90;;;;;;5065669;28;20036;-64
2024/01/04 12:42:37;;;;;;;1.45;0.32;;;6.20;99.90;;;;;;5072404;28;20040;-64
2024/01/04 12:45:07;;;;;;;0.10;0.10;;;6.20;99.90;;;;;;5063561;28;20040;-64
2024/01/04 12:47:34;;;;;;;0.00;0.00;;;6.20;99.90;;;;;;5066751;28;20033;-64
2024/01/04 12:50:00;;;;;;;0.47;0.47;;;6.20;99.90;;;;;;5066958;28;20093;-64
2024/01/04 12:52:25;;;;;;;0.10;0.10;;;6.20;99.90;;;;;;5061797;28;20037;-64
2024/01/04 12:54:51;;;;;;;0.10;0.10;;;6.20;99.90;;;;;;5064369;28;20093;-63
2024/01/04 12:57:17;;;;;;;0.00;0.00;;;6.30;99.90;;;;;;5071105;28;20048;-63